Time;durP1;ratioP1;P1;durP2;ratioP2;P2;SDS_P1;SDS_P2;PMS_P1;PMS_P2;Temp;Humidity;BMP_temperature;BMP_pressure;BME280_temperature;BME280_humidity;BME280_pressure;Samples;Min_cycle;Max_cycle;Signal;HPM_P1;HPM_P2
2024/03/02 00:01:12;;;;;;;2.22;1.25;;;9.50;74.50;;;;;;5047955;28;20081;-67
2024/03/02 00:03:38;;;;;;;1.77;1.15;;;9.60;74.70;;;;;;5047366;28;20096;-67
2024/03/02 00:06:04;;;;;;;3.15;1.25;;;9.60;74.70;;;;;;5046418;28;20009;-66
2024/03/02 00:08:30;;;;;;;2.42;1.40;;;9.60;74.70;;;;;;5049385;28;20516;-67
2024/03/02 00:11:02;;;;;;;2.40;1.20;;;9.60;74.80;;;;;;5048818;28;20032;-68
2024/03/02 00:13:30;;;;;;;1.77;1.20;;;9.60;74.80;;;;;;5047880;28;20040;-67
2024/03/02 00:15:57;;;;;;;1.85;1.20;;;9.60;74.80;;;;;;5048769;28;20025;-67
2024/03/02 00:18:31;;;;;;;1.73;1.33;;;9.60;74.80;;;;;;5044823;28;20044;-67
2024/03/02 00:20:57;;;;;;;1.30;1.15;;;9.60;74.90;;;;;;5045883;28;20024;-67
2024/03/02 00:23:24;;;;;;;1.38;1.17;;;9.60;74.70;;;;;;5041878;28;20040;-69
2024/03/02 00:25:55;;;;;;;1.45;1.10;;;9.60;74.90;;;;;;5049278;28;20032;-68
2024/03/02 00:28:23;;;;;;;2.47;1.45;;;9.50;74.90;;;;;;5049255;28;20025;-67
2024/03/02 00:30:56;;;;;;;1.77;1.20;;;9.50;75.00;;;;;;5049243;28;20020;-69
2024/03/02 00:33:22;;;;;;;2.85;1.30;;;9.50;75.00;;;;;;5048972;28;20036;-68
2024/03/02 00:35:49;;;;;;;1.60;1.30;;;9.50;75.10;;;;;;5049346;28;20020;-69
2024/03/02 00:38:15;;;;;;;2.20;1.20;;;9.60;75.10;;;;;;5040102;28;20017;-67
2024/03/02 00:40:42;;;;;;;2.28;1.25;;;9.50;75.00;;;;;;5049691;28;20036;-68
2024/03/02 00:43:38;;;;;;;2.35;1.20;;;9.60;74.90;;;;;;5051188;28;20108;-68
2024/03/02 00:46:03;;;;;;;2.47;1.20;;;9.60;74.90;;;;;;5048024;28;20021;-72
2024/03/02 00:48:31;;;;;;;1.92;1.23;;;9.60;74.90;;;;;;5046255;28;20506;-67
2024/03/02 00:50:57;;;;;;;1.38;1.10;;;9.70;74.80;;;;;;5047757;28;20029;-68
2024/03/02 00:53:26;;;;;;;1.90;1.10;;;9.60;74.70;;;;;;5048014;28;20017;-67
2024/03/02 00:55:52;;;;;;;1.92;1.30;;;9.70;74.80;;;;;;5045507;28;20079;-68
2024/03/02 00:58:17;;;;;;;1.33;1.17;;;9.70;74.80;;;;;;5046301;28;20053;-68
2024/03/02 01:00:45;;;;;;;1.67;1.15;;;9.70;74.60;;;;;;5047646;28;20108;-68
2024/03/02 01:03:12;;;;;;;1.20;1.10;;;9.70;74.80;;;;;;5046350;28;20478;-67
2024/03/02 01:05:42;;;;;;;1.45;1.10;;;9.70;74.80;;;;;;5047978;28;20487;-68
2024/03/02 01:08:07;;;;;;;1.73;1.20;;;9.70;74.70;;;;;;5047407;28;20025;-71
2024/03/02 01:10:33;;;;;;;3.15;1.40;;;9.70;74.70;;;;;;5047059;28;20017;-68
2024/03/02 01:12:58;;;;;;;3.60;1.30;;;9.70;74.80;;;;;;5045824;28;20021;-67
2024/03/02 01:15:24;;;;;;;2.97;1.40;;;9.70;74.60;;;;;;5047132;28;20040;-68
2024/03/02 01:17:50;;;;;;;2.17;1.40;;;9.70;74.80;;;;;;5042576;28;20049;-67
2024/03/02 01:20:15;;;;;;;2.00;1.20;;;9.70;74.80;;;;;;5046702;28;20463;-68
2024/03/02 01:22:41;;;;;;;3.10;1.30;;;9.80;74.80;;;;;;5044207;28;20036;-67
2024/03/02 01:25:08;;;;;;;1.25;1.00;;;9.80;74.80;;;;;;5048074;28;20068;-67
2024/03/02 01:27:34;;;;;;;1.55;1.27;;;9.80;74.90;;;;;;5046462;28;20017;-67
2024/03/02 01:29:59;;;;;;;1.33;1.05;;;9.80;74.90;;;;;;5045264;28;20031;-68
2024/03/02 01:32:25;;;;;;;1.60;1.17;;;9.80;75.00;;;;;;5047439;28;20025;-67
2024/03/02 01:34:51;;;;;;;1.77;1.10;;;9.80;75.00;;;;;;5048989;28;20032;-69
2024/03/02 01:37:16;;;;;;;2.22;1.10;;;9.90;75.00;;;;;;5045168;28;20087;-68
2024/03/02 01:39:42;;;;;;;1.73;1.10;;;9.90;75.00;;;;;;5047941;28;20019;-67
2024/03/02 01:42:07;;;;;;;1.17;0.80;;;9.90;74.90;;;;;;5046804;28;20021;-68
2024/03/02 01:44:33;;;;;;;1.95;0.90;;;9.90;75.00;;;;;;5047900;28;20032;-67
2024/03/02 01:46:59;;;;;;;1.00;1.00;;;9.90;75.00;;;;;;5041857;28;20051;-67
2024/03/02 01:49:24;;;;;;;1.98;1.00;;;9.90;75.10;;;;;;5047264;28;20031;-66
2024/03/02 01:51:50;;;;;;;1.33;0.90;;;9.80;75.60;;;;;;5046894;28;20040;-68
2024/03/02 01:54:16;;;;;;;0.90;0.70;;;9.80;76.00;;;;;;5045689;28;20033;-68
2024/03/02 01:56:41;;;;;;;0.88;0.80;;;9.80;76.10;;;;;;5048100;28;20021;-68
2024/03/02 01:59:07;;;;;;;0.98;0.70;;;9.80;76.30;;;;;;5045494;28;20025;-69
2024/03/02 02:01:32;;;;;;;0.73;0.60;;;9.80;76.40;;;;;;5045178;28;20028;-68
2024/03/02 02:03:58;;;;;;;0.50;0.50;;;9.80;76.50;;;;;;5042198;28;20384;-69
2024/03/02 02:06:24;;;;;;;0.77;0.60;;;9.80;76.50;;;;;;5047195;28;20024;-68
2024/03/02 02:08:49;;;;;;;2.63;0.60;;;9.90;76.50;;;;;;5046436;28;20020;-69
2024/03/02 02:11:16;;;;;;;1.08;0.52;;;9.90;76.70;;;;;;5046240;28;20602;-68
2024/03/02 02:13:41;;;;;;;0.50;0.50;;;9.80;76.70;;;;;;5046808;28;20025;-67
2024/03/02 02:16:08;;;;;;;1.05;0.60;;;9.90;76.80;;;;;;5046671;28;20029;-68
2024/03/02 02:18:34;;;;;;;0.52;0.52;;;9.80;76.90;;;;;;5045913;28;20375;-67
2024/03/02 02:20:59;;;;;;;1.13;0.70;;;9.80;77.20;;;;;;5043053;28;20021;-68
2024/03/02 02:23:25;;;;;;;0.50;0.50;;;9.80;77.30;;;;;;5046356;28;20104;-66
2024/03/02 02:25:50;;;;;;;0.40;0.40;;;9.70;77.30;;;;;;5048002;28;20331;-67
2024/03/02 02:28:16;;;;;;;0.63;0.57;;;9.70;77.50;;;;;;5047271;28;20040;-68
2024/03/02 02:30:42;;;;;;;0.65;0.60;;;9.70;77.70;;;;;;5045750;28;20025;-68
2024/03/02 02:33:09;;;;;;;0.93;0.60;;;9.70;77.90;;;;;;5046668;28;20442;-67
2024/03/02 02:35:35;;;;;;;0.50;0.50;;;9.70;77.90;;;;;;5043470;28;20114;-67
2024/03/02 02:38:01;;;;;;;0.40;0.40;;;9.70;77.90;;;;;;5046979;28;20021;-66
2024/03/02 02:40:30;;;;;;;0.50;0.50;;;9.70;77.90;;;;;;5045934;28;21454;-66
2024/03/02 02:42:56;;;;;;;0.93;0.50;;;9.70;77.90;;;;;;5050958;28;20425;-67
2024/03/02 02:45:21;;;;;;;1.35;0.60;;;9.70;77.90;;;;;;5049116;28;20112;-66
2024/03/02 02:47:47;;;;;;;0.65;0.50;;;9.70;78.00;;;;;;5045875;28;20062;-67
2024/03/02 02:50:13;;;;;;;0.57;0.57;;;9.70;78.00;;;;;;5047918;28;20021;-67
2024/03/02 02:52:40;;;;;;;0.50;0.50;;;9.70;78.00;;;;;;5045796;28;20029;-67
2024/03/02 02:55:08;;;;;;;0.50;0.50;;;9.70;78.00;;;;;;5050308;28;20025;-68
2024/03/02 02:57:40;;;;;;;0.50;0.50;;;9.70;78.00;;;;;;5047617;28;20040;-68
2024/03/02 03:00:13;;;;;;;0.50;0.50;;;9.60;78.00;;;;;;5049270;28;20419;-68
2024/03/02 03:02:41;;;;;;;0.50;0.50;;;9.70;78.10;;;;;;5052095;28;20483;-67
2024/03/02 03:05:07;;;;;;;1.73;0.50;;;9.70;78.20;;;;;;5050996;28;20078;-67
2024/03/02 03:07:34;;;;;;;0.50;0.50;;;9.70;78.20;;;;;;5046375;28;20021;-68
2024/03/02 03:10:00;;;;;;;0.50;0.50;;;9.60;78.10;;;;;;5048026;28;20516;-67
2024/03/02 03:12:26;;;;;;;0.50;0.50;;;9.60;78.20;;;;;;5051543;28;20060;-67
2024/03/02 03:14:51;;;;;;;1.55;0.60;;;9.60;78.20;;;;;;5051034;28;20044;-67
2024/03/02 03:17:17;;;;;;;0.60;0.57;;;9.60;78.30;;;;;;5049490;28;20439;-67
2024/03/02 03:19:42;;;;;;;0.50;0.50;;;9.50;78.20;;;;;;5049576;28;20139;-68
2024/03/02 03:22:08;;;;;;;0.68;0.50;;;9.50;78.30;;;;;;5049616;28;20021;-69
2024/03/02 03:24:34;;;;;;;0.50;0.50;;;9.50;78.40;;;;;;5048991;28;20108;-67
2024/03/02 03:26:59;;;;;;;1.27;0.55;;;9.40;78.40;;;;;;5051430;28;20020;-67
2024/03/02 03:29:25;;;;;;;0.57;0.50;;;9.40;78.50;;;;;;5049776;28;20052;-66
2024/03/02 03:31:50;;;;;;;0.60;0.60;;;9.50;78.50;;;;;;5046660;28;20075;-67
2024/03/02 03:34:16;;;;;;;0.50;0.50;;;9.40;78.50;;;;;;5051446;28;20043;-66
2024/03/02 03:36:42;;;;;;;0.50;0.50;;;9.40;78.70;;;;;;5051011;28;20032;-67
2024/03/02 03:39:07;;;;;;;0.50;0.50;;;9.40;78.80;;;;;;5051791;28;20055;-67
2024/03/02 03:41:33;;;;;;;0.50;0.50;;;9.40;78.80;;;;;;5050422;28;20047;-68
2024/03/02 03:43:58;;;;;;;0.60;0.60;;;9.40;79.00;;;;;;5052374;28;20108;-67
2024/03/02 03:46:24;;;;;;;0.63;0.60;;;9.30;79.10;;;;;;5048248;28;20028;-67
2024/03/02 03:48:50;;;;;;;0.50;0.50;;;9.30;79.10;;;;;;5048293;28;20075;-67
2024/03/02 03:51:15;;;;;;;0.65;0.50;;;9.30;79.30;;;;;;5052048;28;20083;-69
2024/03/02 03:53:41;;;;;;;0.52;0.52;;;9.30;79.50;;;;;;5048941;28;20037;-67
2024/03/02 03:56:06;;;;;;;0.90;0.60;;;9.20;79.60;;;;;;5048723;28;20021;-67
2024/03/02 03:58:32;;;;;;;0.90;0.50;;;9.20;79.80;;;;;;5046911;28;20872;-67
2024/03/02 04:00:57;;;;;;;0.95;0.60;;;9.20;80.00;;;;;;5049064;28;20033;-66
2024/03/02 04:03:23;;;;;;;0.50;0.50;;;9.20;80.10;;;;;;5049485;28;20037;-65
2024/03/02 04:05:48;;;;;;;0.75;0.60;;;9.20;80.30;;;;;;5050523;28;20087;-67
2024/03/02 04:08:14;;;;;;;0.50;0.50;;;9.10;80.50;;;;;;5050034;28;20104;-67
2024/03/02 04:10:40;;;;;;;0.65;0.60;;;9.10;80.60;;;;;;5050602;28;20108;-68
2024/03/02 04:13:05;;;;;;;0.82;0.80;;;9.10;81.00;;;;;;5051289;28;20025;-69
2024/03/02 04:15:31;;;;;;;0.70;0.70;;;9.00;81.10;;;;;;5043841;28;20435;-68
2024/03/02 04:17:57;;;;;;;0.85;0.65;;;9.00;81.00;;;;;;5047959;28;20032;-67
2024/03/02 04:20:22;;;;;;;1.30;0.70;;;9.00;81.20;;;;;;5051048;28;20029;-69
2024/03/02 04:22:48;;;;;;;0.65;0.60;;;9.00;81.40;;;;;;5048704;28;20380;-69
2024/03/02 04:25:13;;;;;;;0.65;0.60;;;8.90;81.60;;;;;;5051846;28;20495;-68
2024/03/02 04:27:39;;;;;;;0.57;0.57;;;8.90;81.70;;;;;;5048420;28;20026;-70
2024/03/02 04:30:05;;;;;;;0.60;0.60;;;8.90;81.60;;;;;;5049881;28;20025;-69
2024/03/02 04:32:31;;;;;;;1.30;0.70;;;9.00;81.60;;;;;;5043569;28;20033;-68
2024/03/02 04:34:57;;;;;;;0.70;0.70;;;8.90;82.40;;;;;;5049096;28;20033;-68
2024/03/02 04:37:22;;;;;;;0.70;0.70;;;8.90;81.70;;;;;;5046668;28;20506;-69
2024/03/02 04:39:48;;;;;;;1.52;0.60;;;8.90;81.70;;;;;;5047719;28;20021;-69
2024/03/02 04:42:13;;;;;;;0.50;0.50;;;8.90;81.70;;;;;;5047329;28;20032;-68
2024/03/02 04:44:39;;;;;;;1.30;0.75;;;8.90;81.80;;;;;;5050670;28;20605;-67
2024/03/02 04:47:05;;;;;;;0.50;0.50;;;8.90;81.90;;;;;;5050468;28;20106;-68
2024/03/02 04:49:30;;;;;;;0.60;0.60;;;8.90;81.80;;;;;;5048741;28;20048;-67
2024/03/02 04:51:56;;;;;;;0.40;0.40;;;8.90;81.90;;;;;;5050995;28;20049;-68
2024/03/02 04:54:25;;;;;;;0.40;0.40;;;8.90;81.90;;;;;;5048963;28;20590;-68
2024/03/02 04:56:51;;;;;;;0.50;0.50;;;8.90;81.80;;;;;;5051603;28;20495;-68
2024/03/02 04:59:17;;;;;;;0.60;0.60;;;8.90;81.80;;;;;;5047981;28;20039;-69
2024/03/02 05:01:43;;;;;;;0.77;0.50;;;8.90;81.80;;;;;;5048606;28;20557;-67
2024/03/02 05:04:11;;;;;;;0.60;0.60;;;8.90;81.90;;;;;;5045804;28;20021;-68
2024/03/02 05:06:38;;;;;;;0.57;0.57;;;8.80;81.90;;;;;;5048644;28;20033;-67
2024/03/02 05:09:04;;;;;;;0.68;0.50;;;8.80;82.00;;;;;;5042644;28;20025;-67
2024/03/02 05:11:53;;;;;;;0.50;0.50;;;8.80;82.10;;;;;;5047808;28;20070;-68
2024/03/02 05:14:17;;;;;;;0.60;0.60;;;8.80;82.20;;;;;;5045307;28;20043;-68
2024/03/02 05:16:43;;;;;;;0.63;0.63;;;8.70;82.20;;;;;;5045607;28;20028;-68
2024/03/02 05:19:08;;;;;;;1.02;0.70;;;8.70;82.30;;;;;;5048133;28;20072;-66
2024/03/02 05:21:34;;;;;;;0.93;0.50;;;8.60;82.40;;;;;;5047905;28;20070;-67
2024/03/02 05:24:00;;;;;;;2.30;0.70;;;8.60;82.60;;;;;;5046511;28;20025;-68
2024/03/02 05:26:26;;;;;;;1.10;0.70;;;8.60;82.60;;;;;;5047074;28;20053;-70
2024/03/02 05:28:52;;;;;;;1.00;0.60;;;8.60;82.60;;;;;;5047445;28;20112;-70
2024/03/02 05:31:17;;;;;;;0.65;0.65;;;8.60;82.80;;;;;;5044883;28;20025;-68
2024/03/02 05:33:43;;;;;;;0.95;0.70;;;8.50;82.70;;;;;;5046077;28;20075;-70
2024/03/02 05:36:09;;;;;;;0.85;0.65;;;8.50;82.80;;;;;;5047487;28;20570;-67
2024/03/02 05:38:35;;;;;;;0.70;0.70;;;8.50;82.80;;;;;;5047312;28;20025;-68
2024/03/02 05:41:01;;;;;;;0.60;0.60;;;8.50;82.80;;;;;;5047867;28;20035;-68
2024/03/02 05:43:26;;;;;;;0.70;0.60;;;8.40;82.90;;;;;;5047921;28;20033;-66
2024/03/02 05:45:52;;;;;;;0.88;0.57;;;8.40;82.90;;;;;;5047124;28;20026;-66
2024/03/02 05:48:18;;;;;;;1.45;0.70;;;8.40;83.00;;;;;;5045929;28;20021;-69
2024/03/02 05:50:43;;;;;;;0.70;0.70;;;8.40;83.00;;;;;;5045248;28;20139;-69
2024/03/02 05:53:09;;;;;;;0.70;0.70;;;8.30;82.90;;;;;;5046278;28;20020;-67
2024/03/02 05:55:35;;;;;;;1.88;0.90;;;8.30;82.90;;;;;;5046996;28;20099;-68
2024/03/02 06:00:32;;;;;;;1.42;0.70;;;8.30;82.80;;;;;;5045403;28;20044;-67
2024/03/02 06:02:58;;;;;;;0.60;0.60;;;8.30;82.80;;;;;;5044714;28;20032;-68
2024/03/02 06:05:24;;;;;;;0.88;0.60;;;8.30;82.70;;;;;;5044456;28;20025;-68
2024/03/02 06:07:50;;;;;;;0.68;0.60;;;8.30;82.80;;;;;;5043813;28;20013;-69
2024/03/02 06:10:16;;;;;;;0.80;0.60;;;8.30;82.80;;;;;;5045868;28;20091;-67
2024/03/02 06:12:42;;;;;;;1.75;0.60;;;8.30;82.70;;;;;;5045547;28;20187;-67
2024/03/02 06:15:07;;;;;;;1.13;0.70;;;8.30;82.70;;;;;;5043667;28;20028;-67
2024/03/02 06:17:35;;;;;;;0.63;0.60;;;8.30;82.70;;;;;;5044610;28;20072;-67
2024/03/02 06:20:01;;;;;;;1.00;0.60;;;8.20;82.70;;;;;;5044583;28;20032;-68
2024/03/02 06:22:26;;;;;;;1.27;0.70;;;8.30;82.70;;;;;;5045513;28;20032;-68
2024/03/02 06:24:52;;;;;;;0.50;0.50;;;8.30;82.70;;;;;;5045714;28;20039;-68
2024/03/02 06:27:17;;;;;;;0.57;0.57;;;8.30;82.70;;;;;;5040929;28;20120;-68
2024/03/02 06:29:43;;;;;;;0.50;0.50;;;8.30;82.70;;;;;;5043454;28;20021;-68
2024/03/02 06:32:08;;;;;;;1.45;0.52;;;8.30;82.70;;;;;;5046627;28;20075;-68
2024/03/02 06:34:34;;;;;;;0.60;0.60;;;8.30;82.70;;;;;;5043598;28;20374;-67
2024/03/02 06:36:59;;;;;;;0.60;0.60;;;8.30;82.60;;;;;;5047842;28;20025;-68
2024/03/02 06:39:25;;;;;;;0.75;0.60;;;8.30;82.60;;;;;;5046862;28;20507;-68
2024/03/02 06:41:52;;;;;;;0.60;0.60;;;8.30;82.60;;;;;;5044288;28;20051;-67
2024/03/02 06:44:17;;;;;;;1.25;0.50;;;8.30;82.50;;;;;;5043136;28;20414;-67
2024/03/02 06:46:43;;;;;;;0.77;0.50;;;8.30;83.10;;;;;;5046052;28;20020;-68
2024/03/02 06:49:10;;;;;;;0.50;0.50;;;8.30;82.40;;;;;;5047275;28;20507;-69
2024/03/02 06:51:36;;;;;;;0.50;0.50;;;8.40;82.40;;;;;;5047742;28;20025;-67
2024/03/02 06:54:02;;;;;;;0.50;0.50;;;8.40;82.40;;;;;;5047560;28;20028;-67
2024/03/02 06:56:27;;;;;;;0.50;0.50;;;8.40;82.50;;;;;;5047533;28;20025;-67
2024/03/02 06:58:53;;;;;;;1.52;0.60;;;8.50;82.40;;;;;;5046442;28;20096;-68
2024/03/02 07:01:20;;;;;;;0.50;0.50;;;8.50;82.30;;;;;;5045651;28;20051;-70
2024/03/02 07:03:45;;;;;;;0.50;0.50;;;8.50;82.20;;;;;;5046391;28;20032;-69
2024/03/02 07:06:11;;;;;;;0.60;0.60;;;8.60;82.20;;;;;;5044147;28;20029;-69
2024/03/02 07:08:36;;;;;;;2.03;0.70;;;8.70;82.10;;;;;;5046215;28;20090;-68
2024/03/02 07:11:02;;;;;;;0.57;0.57;;;8.70;82.60;;;;;;5047333;28;20393;-69
2024/03/02 07:13:28;;;;;;;1.05;0.68;;;8.80;81.80;;;;;;5044557;28;20500;-69
2024/03/02 07:18:27;;;;;;;0.50;0.50;;;8.80;81.60;;;;;;5047896;28;20044;-67
2024/03/02 07:20:53;;;;;;;0.50;0.50;;;8.90;81.60;;;;;;5046059;28;20017;-68
2024/03/02 07:23:20;;;;;;;1.52;0.60;;;8.90;81.50;;;;;;5048114;28;20603;-67
2024/03/02 07:25:46;;;;;;;0.60;0.60;;;9.00;81.40;;;;;;5048663;28;20035;-69
2024/03/02 07:28:11;;;;;;;0.60;0.50;;;9.00;81.30;;;;;;5048623;28;20033;-67
2024/03/02 07:30:38;;;;;;;0.80;0.63;;;9.10;81.20;;;;;;5047471;28;20437;-67
2024/03/02 07:33:04;;;;;;;1.15;0.70;;;9.00;81.10;;;;;;5048517;28;20035;-67
2024/03/02 07:35:31;;;;;;;0.95;0.70;;;9.00;81.10;;;;;;5049266;28;20558;-66
2024/03/02 07:37:57;;;;;;;0.70;0.70;;;9.10;81.20;;;;;;5047968;28;20040;-68
2024/03/02 07:40:23;;;;;;;0.70;0.70;;;9.00;81.10;;;;;;5047837;28;20020;-67
2024/03/02 07:42:48;;;;;;;0.90;0.77;;;9.00;81.20;;;;;;5049049;28;20040;-68
2024/03/02 07:45:14;;;;;;;1.50;0.70;;;9.10;81.10;;;;;;5047743;28;20021;-67
2024/03/02 07:47:40;;;;;;;0.82;0.77;;;9.10;81.60;;;;;;5051227;28;20055;-70
2024/03/02 07:50:06;;;;;;;0.57;0.57;;;9.10;80.90;;;;;;5048931;28;20031;-67
2024/03/02 07:52:33;;;;;;;0.73;0.73;;;9.20;80.80;;;;;;5046221;28;20117;-67
2024/03/02 07:54:59;;;;;;;0.70;0.60;;;9.30;80.60;;;;;;5044137;28;20029;-67
2024/03/02 07:57:25;;;;;;;1.45;0.90;;;9.40;80.40;;;;;;5047490;28;20040;-67
2024/03/02 07:59:51;;;;;;;2.67;0.80;;;9.60;80.10;;;;;;5046143;28;20024;-67
2024/03/02 08:02:16;;;;;;;2.13;0.70;;;9.70;80.30;;;;;;5042776;28;20033;-66
2024/03/02 08:04:42;;;;;;;0.73;0.60;;;9.60;79.60;;;;;;5048074;28;20025;-66
2024/03/02 08:07:09;;;;;;;0.70;0.60;;;9.60;79.30;;;;;;5042108;28;20522;-67
2024/03/02 08:09:34;;;;;;;0.85;0.70;;;9.70;79.40;;;;;;5041229;28;20052;-67
2024/03/02 08:12:00;;;;;;;1.15;0.60;;;9.80;80.10;;;;;;5046381;28;20064;-67
2024/03/02 08:14:26;;;;;;;0.70;0.68;;;9.80;79.20;;;;;;5050577;28;20090;-66
2024/03/02 08:16:51;;;;;;;0.82;0.70;;;9.80;79.30;;;;;;5043570;28;20439;-66
2024/03/02 08:19:17;;;;;;;0.60;0.60;;;9.90;79.20;;;;;;5046276;28;20036;-67
2024/03/02 08:21:43;;;;;;;3.08;0.88;;;9.90;78.90;;;;;;5047501;28;20113;-68
2024/03/02 08:24:09;;;;;;;1.38;0.80;;;10.00;78.90;;;;;;5048427;28;20387;-65
2024/03/02 08:26:35;;;;;;;1.77;0.80;;;10.00;78.80;;;;;;5048746;28;20037;-66
2024/03/02 08:29:04;;;;;;;1.90;0.70;;;10.00;78.60;;;;;;5045509;28;20031;-65
2024/03/02 08:31:30;;;;;;;1.08;0.70;;;10.10;78.40;;;;;;5048897;28;20021;-66
2024/03/02 08:33:56;;;;;;;2.30;0.82;;;10.10;78.20;;;;;;5048926;28;20313;-65
2024/03/02 08:36:25;;;;;;;1.85;0.80;;;10.10;78.10;;;;;;5047477;28;20025;-64
2024/03/02 08:38:51;;;;;;;1.40;0.70;;;10.10;77.80;;;;;;5046528;28;20029;-65
2024/03/02 08:41:16;;;;;;;2.83;0.68;;;10.10;77.70;;;;;;5049869;28;20064;-65
2024/03/02 08:43:42;;;;;;;0.60;0.60;;;10.20;77.70;;;;;;5043431;28;20044;-66
2024/03/02 08:46:08;;;;;;;1.92;1.00;;;10.20;77.50;;;;;;5041366;28;20080;-65
2024/03/02 08:48:34;;;;;;;2.75;0.70;;;10.20;77.20;;;;;;5043053;28;20032;-68
2024/03/02 08:51:00;;;;;;;1.45;0.88;;;10.30;77.20;;;;;;5047531;28;20504;-67
2024/03/02 08:53:26;;;;;;;3.80;1.30;;;10.40;77.00;;;;;;5045955;28;20032;-66
2024/03/02 08:55:51;;;;;;;1.45;0.70;;;10.40;76.60;;;;;;5048121;28;20037;-67
2024/03/02 08:58:17;;;;;;;1.48;0.60;;;10.40;76.20;;;;;;5044509;28;20079;-67
2024/03/02 09:00:43;;;;;;;0.75;0.55;;;10.40;76.40;;;;;;5044096;28;20029;-67
2024/03/02 09:03:08;;;;;;;1.52;0.80;;;10.40;76.30;;;;;;5048570;28;20103;-66
2024/03/02 09:05:34;;;;;;;0.98;0.70;;;10.50;75.90;;;;;;5046148;28;20021;-66
2024/03/02 09:07:59;;;;;;;1.45;0.63;;;10.60;76.10;;;;;;5043301;28;20024;-66
2024/03/02 09:10:25;;;;;;;2.05;0.80;;;10.60;76.00;;;;;;5044978;28;20055;-64
2024/03/02 09:12:50;;;;;;;2.25;0.68;;;10.60;75.80;;;;;;5041421;28;20033;-65
2024/03/02 09:15:16;;;;;;;1.38;0.80;;;10.60;75.70;;;;;;5043591;28;20032;-66
2024/03/02 09:17:42;;;;;;;1.02;0.77;;;10.60;75.10;;;;;;5042136;28;20029;-67
2024/03/02 09:20:07;;;;;;;1.38;0.70;;;10.60;74.90;;;;;;5044064;28;20035;-66
2024/03/02 09:22:33;;;;;;;1.33;0.73;;;10.60;75.20;;;;;;5044177;28;20025;-66
2024/03/02 09:24:59;;;;;;;1.63;0.90;;;10.70;74.90;;;;;;5046121;28;20029;-65
2024/03/02 09:27:24;;;;;;;1.63;0.77;;;10.70;74.60;;;;;;5047000;28;20479;-65
2024/03/02 09:29:50;;;;;;;1.23;0.80;;;10.80;74.70;;;;;;5045544;28;20021;-66
2024/03/02 09:32:15;;;;;;;1.45;0.90;;;10.80;74.20;;;;;;5042916;28;20079;-67
2024/03/02 09:34:41;;;;;;;1.83;0.80;;;10.70;74.50;;;;;;5045898;28;20090;-67
2024/03/02 09:37:07;;;;;;;1.65;0.90;;;10.70;73.80;;;;;;5045169;28;20029;-66
2024/03/02 09:39:33;;;;;;;1.38;0.80;;;10.80;74.00;;;;;;5045716;28;20025;-66
2024/03/02 09:42:03;;;;;;;1.42;0.90;;;10.80;73.70;;;;;;5044095;28;20090;-66
2024/03/02 09:44:29;;;;;;;1.63;0.75;;;10.90;73.30;;;;;;5043315;28;20029;-66
2024/03/02 09:46:55;;;;;;;1.35;0.68;;;10.80;72.60;;;;;;5044276;28;20021;-66
2024/03/02 09:49:21;;;;;;;1.20;0.80;;;10.80;73.20;;;;;;5042328;28;20021;-67
2024/03/02 09:51:48;;;;;;;2.60;0.80;;;10.90;73.10;;;;;;5045048;28;20537;-66
2024/03/02 09:54:15;;;;;;;1.30;0.80;;;10.90;73.10;;;;;;5041834;28;20083;-66
2024/03/02 09:56:41;;;;;;;1.77;0.80;;;10.90;72.60;;;;;;5045184;28;20033;-67
2024/03/02 09:59:07;;;;;;;1.42;0.70;;;10.90;72.80;;;;;;5046087;28;20033;-66
2024/03/02 10:01:32;;;;;;;0.82;0.68;;;10.90;72.60;;;;;;5041303;28;20123;-66
2024/03/02 10:04:04;;;;;;;1.73;0.70;;;11.00;72.70;;;;;;5046076;28;20063;-65
2024/03/02 10:06:30;;;;;;;1.13;0.70;;;11.00;72.20;;;;;;5049490;28;20067;-65
2024/03/02 10:08:56;;;;;;;2.70;0.90;;;11.00;71.70;;;;;;5047399;28;20029;-66
2024/03/02 10:11:32;;;;;;;2.60;0.73;;;11.00;71.60;;;;;;5043967;28;20070;-67
2024/03/02 10:14:11;;;;;;;2.05;0.80;;;11.10;72.00;;;;;;5048651;28;20428;-65
2024/03/02 10:16:39;;;;;;;2.13;0.70;;;11.20;71.60;;;;;;5046642;28;20051;-66
2024/03/02 10:19:17;;;;;;;1.25;0.70;;;11.20;71.40;;;;;;5042403;28;20927;-65
2024/03/02 10:21:44;;;;;;;1.38;0.70;;;11.30;71.40;;;;;;5044724;28;20025;-66
2024/03/02 10:24:09;;;;;;;2.22;0.90;;;11.30;70.80;;;;;;5042924;28;20021;-66
2024/03/02 10:26:35;;;;;;;1.60;0.80;;;11.30;70.20;;;;;;5043327;28;20091;-67
2024/03/02 10:29:02;;;;;;;1.98;0.70;;;11.30;70.60;;;;;;5045018;28;20033;-66
2024/03/02 10:31:28;;;;;;;2.20;0.95;;;11.30;70.50;;;;;;5046802;28;20455;-66
2024/03/02 10:33:57;;;;;;;0.90;0.60;;;11.40;70.40;;;;;;5043350;28;20100;-65
2024/03/02 10:36:25;;;;;;;1.52;0.80;;;11.60;70.60;;;;;;5042719;28;20029;-66
2024/03/02 10:38:54;;;;;;;1.65;0.80;;;11.60;69.80;;;;;;5045243;28;20059;-66
2024/03/02 10:41:23;;;;;;;2.03;0.77;;;11.60;69.30;;;;;;5044036;28;20473;-65
2024/03/02 10:43:55;;;;;;;1.90;0.90;;;11.60;68.70;;;;;;5043333;28;20032;-65
2024/03/02 10:46:22;;;;;;;2.40;1.10;;;11.60;68.20;;;;;;5046503;28;20108;-65
2024/03/02 10:48:49;;;;;;;1.80;0.80;;;11.60;68.20;;;;;;5044726;28;20150;-67
2024/03/02 10:51:15;;;;;;;2.13;0.73;;;11.70;68.10;;;;;;5046157;28;20017;-65
2024/03/02 10:53:40;;;;;;;1.50;0.80;;;11.70;67.90;;;;;;5042755;28;20434;-66
2024/03/02 10:56:09;;;;;;;3.03;0.80;;;11.70;67.90;;;;;;5046025;28;20047;-67
2024/03/02 10:58:36;;;;;;;1.15;1.05;;;11.80;67.90;;;;;;5059130;28;20056;-66
2024/03/02 11:01:07;;;;;;;1.30;0.70;;;11.80;67.60;;;;;;5044293;28;20029;-66
2024/03/02 11:03:35;;;;;;;2.38;0.73;;;11.90;67.40;;;;;;5048356;28;20033;-66
2024/03/02 11:06:07;;;;;;;1.00;0.60;;;11.90;67.40;;;;;;5047173;28;20738;-66
2024/03/02 11:08:35;;;;;;;1.27;0.75;;;12.00;67.70;;;;;;5046249;28;20111;-67
2024/03/02 11:11:16;;;;;;;1.40;0.70;;;12.00;66.70;;;;;;5048186;28;20357;-67
2024/03/02 11:13:49;;;;;;;1.20;0.60;;;12.00;67.00;;;;;;5047460;28;20455;-66
2024/03/02 11:16:34;;;;;;;1.77;0.88;;;12.00;67.50;;;;;;5043807;28;20289;-66
2024/03/02 11:19:11;;;;;;;0.60;0.60;;;12.20;67.10;;;;;;5049318;28;20044;-67
2024/03/02 11:21:38;;;;;;;0.95;0.60;;;12.30;67.20;;;;;;5045278;28;20201;-68
2024/03/02 11:24:24;;;;;;;1.38;0.75;;;12.30;66.20;;;;;;5047033;28;20388;-67
2024/03/02 11:26:51;;;;;;;1.75;0.75;;;12.30;66.50;;;;;;5047953;28;20029;-67
2024/03/02 11:29:35;;;;;;;1.02;0.70;;;12.30;67.00;;;;;;5044085;28;20028;-67
2024/03/02 11:32:04;;;;;;;3.65;1.27;;;12.30;66.90;;;;;;5046959;28;20025;-67
2024/03/02 11:34:35;;;;;;;1.30;0.77;;;12.20;66.60;;;;;;5047805;28;20021;-66
2024/03/02 11:37:04;;;;;;;1.17;0.70;;;12.20;66.60;;;;;;5044839;28;20032;-66
2024/03/02 11:39:30;;;;;;;1.42;0.63;;;12.20;67.10;;;;;;5047885;28;20696;-66
2024/03/02 11:41:59;;;;;;;1.02;0.77;;;12.30;67.30;;;;;;5048779;28;20029;-67
2024/03/02 11:44:29;;;;;;;1.55;0.60;;;12.30;66.60;;;;;;5047679;28;20088;-67
2024/03/02 11:47:16;;;;;;;2.17;0.60;;;12.30;66.00;;;;;;5049466;28;20499;-68
2024/03/02 11:49:49;;;;;;;1.23;0.50;;;12.30;66.10;;;;;;5045897;28;20340;-65
2024/03/02 11:52:17;;;;;;;2.22;0.70;;;12.40;66.30;;;;;;5045256;28;20083;-65
2024/03/02 11:54:47;;;;;;;0.93;0.60;;;12.40;66.40;;;;;;5044746;28;20032;-66
2024/03/02 11:57:15;;;;;;;2.00;0.70;;;12.40;65.80;;;;;;5044620;28;20033;-67
2024/03/02 11:59:41;;;;;;;1.08;0.70;;;12.40;66.60;;;;;;5044200;28;20079;-66
2024/03/02 12:02:12;;;;;;;1.73;0.70;;;12.50;66.40;;;;;;5045208;28;20028;-66
2024/03/02 12:04:38;;;;;;;0.75;0.60;;;12.60;66.30;;;;;;5046284;28;20027;-66
2024/03/02 12:07:04;;;;;;;0.50;0.50;;;12.60;66.30;;;;;;5042974;28;20572;-66
2024/03/02 12:09:30;;;;;;;2.13;0.70;;;12.70;66.00;;;;;;5042799;28;20021;-66
2024/03/02 12:12:09;;;;;;;1.00;0.60;;;12.80;65.40;;;;;;5049034;28;20087;-66
2024/03/02 12:14:37;;;;;;;1.60;0.63;;;12.90;65.30;;;;;;5045715;28;20499;-66
2024/03/02 12:17:03;;;;;;;1.95;0.70;;;12.90;64.80;;;;;;5048060;28;20028;-65
2024/03/02 12:19:29;;;;;;;2.58;0.60;;;12.90;64.70;;;;;;5045706;28;20041;-66
2024/03/02 12:21:56;;;;;;;2.53;0.70;;;13.00;64.60;;;;;;5045985;28;20051;-67
2024/03/02 12:24:22;;;;;;;1.42;0.80;;;13.00;64.20;;;;;;5043074;28;20468;-67
2024/03/02 12:26:50;;;;;;;1.48;0.60;;;13.10;63.90;;;;;;5046906;28;20029;-67
2024/03/02 12:29:16;;;;;;;1.10;0.70;;;13.20;62.80;;;;;;5049111;28;20021;-67
2024/03/02 12:31:47;;;;;;;3.13;0.73;;;13.30;63.00;;;;;;5049173;28;20028;-69
2024/03/02 12:34:17;;;;;;;1.17;0.50;;;13.30;61.60;;;;;;5044104;28;20029;-65
2024/03/02 12:36:47;;;;;;;1.60;0.50;;;13.30;62.00;;;;;;5047516;28;20029;-66
2024/03/02 12:39:13;;;;;;;1.40;0.50;;;13.40;62.80;;;;;;5046205;28;20509;-66
2024/03/02 12:41:39;;;;;;;0.98;0.57;;;13.50;62.50;;;;;;5047424;28;20384;-67
2024/03/02 12:44:05;;;;;;;1.48;0.50;;;13.50;62.00;;;;;;5043510;28;20108;-66
2024/03/02 12:46:32;;;;;;;2.97;1.20;;;13.60;61.70;;;;;;5042382;28;20028;-65
2024/03/02 12:48:59;;;;;;;1.00;0.55;;;13.60;60.90;;;;;;5047504;28;20029;-66
2024/03/02 12:51:25;;;;;;;1.95;0.70;;;13.60;60.60;;;;;;5047552;28;20848;-65
2024/03/02 12:54:10;;;;;;;0.60;0.50;;;13.70;61.40;;;;;;5046526;28;20033;-66
2024/03/02 12:56:37;;;;;;;1.67;0.60;;;13.80;60.30;;;;;;5045450;28;20032;-66